GMD weather

Ben Slimane Airport
Ben Slimane, Casablanca Province, Morocco

Public forecast

Using degrees Celsius for public forecast. Weather courtesy of forecast.io.

METAR (pilot weather report)

Retrieved 2019/05/19 23:00 UTC (51 minutes ago):

GMMB 192300Z AUTO 10003KT //// R32/P2000N VV002 15/14 Q1017 NOSIG

TAF (pilot weather forecast)

Closest forecast is Mohammed V International Airport, 25.3 nm (46.8 km) SW. Retrieved 2019/05/19 18:00 UTC (6 hours ago):

TAF GMMN 191700Z 1918/2024 36016G26KT 9999 FEW016 BECMG 1920/1922 36008KT 9999 SCT016 PROB30 TEMPO 2005/2008 4000 BR SCT008 TEMPO 2014/2019 34016G26KT